createdAt,value
2018-06-17T00:00:47.514Z,6.27
2018-06-17T00:03:16.876Z,4.83
2018-06-17T00:05:46.207Z,5.37
2018-06-17T00:08:15.511Z,6.37
2018-06-17T00:10:45.236Z,5.97
2018-06-17T00:13:14.567Z,5.83
2018-06-17T00:15:43.901Z,6.87
2018-06-17T00:18:13.330Z,5.30
2018-06-17T00:20:42.893Z,7.67
2018-06-17T00:23:12.273Z,6.97
2018-06-17T00:25:41.600Z,6.47
2018-06-17T00:28:10.993Z,8.43
2018-06-17T00:30:40.980Z,6.20
2018-06-17T00:33:10.564Z,6.40
2018-06-17T00:35:39.865Z,6.57
2018-06-17T00:38:09.174Z,7.63
2018-06-17T00:40:38.513Z,7.00
2018-06-17T00:43:07.836Z,7.70
2018-06-17T00:45:37.181Z,6.67
2018-06-17T00:48:06.905Z,7.00
2018-06-17T00:50:36.237Z,6.97
2018-06-17T00:53:05.544Z,6.67
2018-06-17T00:55:35.358Z,8.33
2018-06-17T00:58:04.933Z,7.80
2018-06-17T01:00:34.600Z,7.97
2018-06-17T01:03:04.281Z,9.07
2018-06-17T01:05:34.013Z,10.37
2018-06-17T01:08:03.664Z,10.57
2018-06-17T01:10:34.160Z,9.57
2018-06-17T01:13:03.485Z,10.87
2018-06-17T01:15:33.092Z,11.20
2018-06-17T01:18:02.633Z,9.43
2018-06-17T01:20:32.399Z,9.43
2018-06-17T01:23:01.740Z,9.83
2018-06-17T01:25:32.083Z,13.40
2018-06-17T01:28:01.387Z,10.17
2018-06-17T01:30:30.721Z,10.93
2018-06-17T01:33:00.142Z,9.50
2018-06-17T01:35:29.753Z,11.17
2018-06-17T01:37:59.048Z,10.33
2018-06-17T01:40:28.675Z,9.67
2018-06-17T01:42:58.101Z,11.83
2018-06-17T01:45:27.451Z,11.87
2018-06-17T01:47:57.131Z,13.37
2018-06-17T01:50:26.838Z,9.87
2018-06-17T01:52:56.307Z,11.63
2018-06-17T01:55:26.568Z,14.27
2018-06-17T01:57:55.853Z,15.67
2018-06-17T02:00:25.199Z,12.57
2018-06-17T02:02:54.866Z,14.37
2018-06-17T02:05:29.486Z,14.03
2018-06-17T02:08:04.004Z,14.20
2018-06-17T02:10:38.747Z,13.00
2018-06-17T02:13:08.095Z,14.03
2018-06-17T02:15:37.451Z,9.53
2018-06-17T02:18:06.772Z,13.30
2018-06-17T02:20:36.130Z,16.63
2018-06-17T02:23:05.584Z,13.93
2018-06-17T02:25:35.021Z,11.80
2018-06-17T02:28:04.334Z,16.07
2018-06-17T02:30:33.692Z,14.33
2018-06-17T02:33:02.997Z,13.77
2018-06-17T02:35:32.401Z,14.30
2018-06-17T02:38:01.770Z,16.53
2018-06-17T02:40:31.099Z,15.90
2018-06-17T02:43:00.783Z,15.93
2018-06-17T02:45:35.574Z,16.90
2018-06-17T02:48:10.088Z,14.83
2018-06-17T02:50:44.747Z,16.97
2018-06-17T02:53:19.704Z,16.47
2018-06-17T02:55:49.059Z,15.80
2018-06-17T02:58:18.415Z,14.83
2018-06-17T03:00:48.070Z,12.50
2018-06-17T03:03:17.374Z,15.97
2018-06-17T03:05:47.125Z,16.67
2018-06-17T03:08:16.448Z,15.43
2018-06-17T03:10:46.133Z,17.00
2018-06-17T03:13:15.739Z,16.67
2018-06-17T03:15:46.192Z,17.00
2018-06-17T03:18:15.884Z,14.00
2018-06-17T03:20:45.471Z,14.97
2018-06-17T03:23:14.821Z,17.53
2018-06-17T03:25:49.324Z,13.30
2018-06-17T03:28:23.772Z,17.07
2018-06-17T03:30:58.195Z,16.93
2018-06-17T03:33:32.800Z,16.43
2018-06-17T03:36:07.521Z,13.50
2018-06-17T03:38:37.423Z,14.73
2018-06-17T03:41:06.862Z,14.87
2018-06-17T03:43:37.136Z,10.77
2018-06-17T03:46:07.751Z,12.83
2018-06-17T03:48:37.085Z,15.03
2018-06-17T03:51:06.455Z,13.53
2018-06-17T03:53:35.799Z,16.60
2018-06-17T03:56:05.756Z,12.27
2018-06-17T03:58:35.113Z,14.70
2018-06-17T04:01:04.469Z,18.23
2018-06-17T04:03:33.824Z,15.67
2018-06-17T04:06:03.236Z,15.93
2018-06-17T04:08:32.795Z,13.27
2018-06-17T04:11:02.128Z,14.83
2018-06-17T04:13:31.480Z,19.50
2018-06-17T04:16:00.848Z,14.87
2018-06-17T04:18:30.153Z,11.30
2018-06-17T04:20:59.464Z,12.47
2018-06-17T04:23:29.527Z,13.07
2018-06-17T04:25:59.170Z,13.67
2018-06-17T04:28:28.755Z,14.50
2018-06-17T04:30:58.074Z,12.00
2018-06-17T04:33:28.253Z,15.43
2018-06-17T04:35:57.575Z,15.57
2018-06-17T04:38:28.656Z,12.53
2018-06-17T04:40:57.969Z,15.57
2018-06-17T04:43:27.313Z,16.97
2018-06-17T04:45:56.636Z,13.63
2018-06-17T04:48:26.325Z,16.77
2018-06-17T04:50:56.333Z,15.23
2018-06-17T04:53:25.686Z,14.87
2018-06-17T04:55:55.019Z,18.30
2018-06-17T04:58:24.980Z,21.07
2018-06-17T05:00:54.880Z,20.67
2018-06-17T05:03:24.224Z,20.70
2018-06-17T05:05:53.782Z,19.00
2018-06-17T05:08:23.324Z,19.30
2018-06-17T05:10:54.823Z,18.63
2018-06-17T05:13:25.176Z,20.57
2018-06-17T05:15:54.585Z,19.83
2018-06-17T05:18:23.911Z,18.90
2018-06-17T05:20:53.237Z,21.90
2018-06-17T05:23:22.679Z,23.57
2018-06-17T05:25:52.220Z,25.73
2018-06-17T05:28:21.539Z,27.63
2018-06-17T05:30:50.879Z,25.33
2018-06-17T05:33:20.264Z,18.30
2018-06-17T05:35:49.997Z,19.30
2018-06-17T05:38:19.361Z,15.03
2018-06-17T05:40:48.948Z,14.10
2018-06-17T05:43:18.292Z,15.10
2018-06-17T05:45:47.644Z,19.03
2018-06-17T05:48:17.719Z,15.90
2018-06-17T05:50:47.023Z,12.93
2018-06-17T05:53:18.448Z,9.50
2018-06-17T05:55:47.769Z,11.80
2018-06-17T05:58:17.085Z,13.80
2018-06-17T06:00:46.746Z,8.73
2018-06-17T06:03:16.414Z,7.97
2018-06-17T06:05:46.136Z,9.70
2018-06-17T06:08:15.943Z,13.00
2018-06-17T06:10:45.847Z,8.10
2018-06-17T06:13:15.214Z,10.20
2018-06-17T06:15:44.554Z,6.17
2018-06-17T06:18:14.253Z,9.03
2018-06-17T06:20:44.048Z,9.53
2018-06-17T06:23:13.388Z,9.20
2018-06-17T06:25:42.926Z,12.67
2018-06-17T06:28:12.668Z,7.30
2018-06-17T06:30:42.251Z,8.20
2018-06-17T06:33:11.895Z,10.83
2018-06-17T06:35:41.281Z,6.87
2018-06-17T06:38:11.274Z,7.13
2018-06-17T06:40:40.921Z,4.33
2018-06-17T06:43:10.455Z,5.07
2018-06-17T06:45:40.432Z,5.20
2018-06-17T06:48:09.692Z,5.00
2018-06-17T06:50:39.053Z,4.73
2018-06-17T06:53:08.392Z,5.63
2018-06-17T06:55:38.150Z,5.17
2018-06-17T06:58:08.110Z,4.67
2018-06-17T07:00:37.412Z,3.83
2018-06-17T07:03:18.088Z,7.03
2018-06-17T07:05:58.696Z,4.13
2018-06-17T07:08:39.947Z,2.23
2018-06-17T07:11:09.624Z,3.40
2018-06-17T07:13:38.989Z,3.60
2018-06-17T07:16:19.344Z,3.17
2018-06-17T07:18:48.677Z,2.50
2018-06-17T07:21:17.714Z,6.03
2018-06-17T07:23:46.757Z,5.37
2018-06-17T07:26:43.466Z,4.00
2018-06-17T07:29:27.984Z,3.17
2018-06-17T07:31:57.526Z,4.47
2018-06-17T07:34:26.640Z,3.57
2018-06-17T07:36:55.680Z,2.60
2018-06-17T07:41:34.496Z,3.80
2018-06-17T07:44:03.998Z,3.20
2018-06-17T07:46:33.115Z,2.93
2018-06-17T07:49:42.261Z,5.10
2018-06-17T07:53:19.590Z,4.37
2018-06-17T07:55:48.842Z,3.33
2018-06-17T07:58:18.265Z,4.60
2018-06-17T08:00:47.342Z,3.53
2018-06-17T08:03:16.896Z,5.00
2018-06-17T08:05:45.936Z,3.07
2018-06-17T08:08:14.995Z,2.57
2018-06-17T08:10:44.305Z,4.33
2018-06-17T08:13:13.695Z,2.90
2018-06-17T08:15:42.746Z,3.13
2018-06-17T08:18:12.111Z,2.53
2018-06-17T08:20:41.594Z,3.13
2018-06-17T08:23:10.636Z,3.03
2018-06-17T08:25:39.702Z,3.17
2018-06-17T08:28:08.728Z,3.50
2018-06-17T08:30:37.852Z,2.17
2018-06-17T08:33:07.545Z,1.93
2018-06-17T08:35:36.981Z,2.60
2018-06-17T08:38:06.440Z,4.67
2018-06-17T08:40:35.506Z,2.10
2018-06-17T08:43:05.428Z,3.43
2018-06-17T08:45:34.617Z,2.30
2018-06-17T08:48:03.641Z,1.77
2018-06-17T08:50:33.478Z,1.57
2018-06-17T08:53:02.513Z,3.87
2018-06-17T08:55:32.064Z,3.60
2018-06-17T08:58:01.123Z,1.93
2018-06-17T09:00:30.579Z,1.73
2018-06-17T09:02:59.962Z,2.93
2018-06-17T09:05:29.999Z,2.57
2018-06-17T09:07:59.009Z,1.30
2018-06-17T09:10:28.096Z,2.33
2018-06-17T09:12:57.464Z,2.17
2018-06-17T09:15:26.498Z,1.93
2018-06-17T09:17:55.489Z,1.07
2018-06-17T09:20:24.572Z,1.47
2018-06-17T09:22:53.887Z,1.47
2018-06-17T09:25:23.388Z,3.07
2018-06-17T09:27:52.439Z,1.13
2018-06-17T09:30:21.893Z,2.70
2018-06-17T09:32:50.975Z,2.77
2018-06-17T09:35:20.409Z,2.93
2018-06-17T09:37:49.717Z,1.60
2018-06-17T09:40:19.081Z,1.67
2018-06-17T09:42:48.132Z,2.23
2018-06-17T09:45:17.604Z,1.90
2018-06-17T09:47:46.642Z,2.07
2018-06-17T09:50:15.791Z,3.60
2018-06-17T09:52:44.865Z,1.40
2018-06-17T09:55:14.422Z,2.60
2018-06-17T09:57:43.473Z,2.03
2018-06-17T10:00:18.000Z,1.30
2018-06-17T10:02:47.469Z,2.10
2018-06-17T10:05:16.927Z,2.90
2018-06-17T10:07:46.241Z,1.13
2018-06-17T10:10:27.484Z,1.53
2018-06-17T10:12:56.988Z,1.60
2018-06-17T10:15:26.275Z,1.77
2018-06-17T10:17:56.461Z,1.73
2018-06-17T10:20:25.791Z,2.17
2018-06-17T10:22:55.143Z,1.97
2018-06-17T10:25:24.442Z,3.10
2018-06-17T10:27:53.863Z,2.17
2018-06-17T10:30:24.788Z,1.60
2018-06-17T10:32:54.224Z,1.43
2018-06-17T10:35:23.546Z,1.73
2018-06-17T10:37:52.851Z,2.30
2018-06-17T10:40:22.158Z,2.73
2018-06-17T10:42:51.873Z,1.23
2018-06-17T10:45:21.513Z,1.97
2018-06-17T10:47:50.924Z,2.37
2018-06-17T10:50:20.252Z,1.63
2018-06-17T10:52:50.010Z,2.70
2018-06-17T10:55:19.622Z,0.90
2018-06-17T10:57:48.967Z,2.30
2018-06-17T11:00:18.281Z,0.73
2018-06-17T11:02:47.616Z,3.07
2018-06-17T11:05:17.011Z,1.80
2018-06-17T11:07:46.607Z,1.57
2018-06-17T11:10:15.906Z,2.40
2018-06-17T11:12:45.248Z,2.00
2018-06-17T11:15:14.525Z,2.10
2018-06-17T11:17:45.777Z,0.83
2018-06-17T11:20:15.334Z,1.03
2018-06-17T11:22:45.208Z,2.83
2018-06-17T11:25:14.526Z,3.27
2018-06-17T11:27:43.787Z,1.77
2018-06-17T11:30:13.113Z,2.80
2018-06-17T11:32:42.433Z,1.50
2018-06-17T11:35:12.390Z,2.70
2018-06-17T11:37:41.731Z,4.33
2018-06-17T11:40:11.069Z,2.33
2018-06-17T11:42:40.355Z,1.67
2018-06-17T11:45:09.689Z,2.70
2018-06-17T11:47:39.372Z,4.83
2018-06-17T11:50:09.006Z,5.50
2018-06-17T11:52:38.353Z,1.93
2018-06-17T11:55:08.019Z,2.20
2018-06-17T11:57:37.319Z,2.23
2018-06-17T12:00:07.365Z,2.83
2018-06-17T12:02:36.705Z,2.80
2018-06-17T12:05:06.461Z,2.27
2018-06-17T12:07:35.766Z,2.47
2018-06-17T12:10:05.530Z,2.70
2018-06-17T12:12:35.241Z,1.97
2018-06-17T12:15:04.617Z,3.30
2018-06-17T12:17:34.059Z,1.90
2018-06-17T12:20:03.408Z,3.47
2018-06-17T12:22:32.975Z,3.23
2018-06-17T12:25:02.305Z,3.83
2018-06-17T12:27:31.609Z,2.33
2018-06-17T12:30:00.949Z,3.57
2018-06-17T12:32:30.478Z,2.00
2018-06-17T12:34:59.847Z,2.63
2018-06-17T12:37:29.190Z,3.53
2018-06-17T12:39:58.517Z,2.23
2018-06-17T12:42:28.160Z,2.20
2018-06-17T12:44:57.495Z,4.43
2018-06-17T12:47:26.846Z,3.53
2018-06-17T12:49:56.173Z,4.10
2018-06-17T12:52:25.524Z,4.17
2018-06-17T12:54:55.173Z,3.67
2018-06-17T12:57:25.478Z,3.17
2018-06-17T12:59:54.787Z,2.73
2018-06-17T13:02:24.233Z,2.57
2018-06-17T13:04:54.376Z,3.83
2018-06-17T13:07:24.077Z,4.37
2018-06-17T13:09:53.538Z,2.73
2018-06-17T13:12:22.850Z,4.10
2018-06-17T13:14:52.414Z,4.27
2018-06-17T13:17:21.723Z,4.67
2018-06-17T13:19:51.325Z,3.43
2018-06-17T13:22:20.631Z,5.10
2018-06-17T13:24:49.947Z,4.00
2018-06-17T13:27:19.364Z,3.20
2018-06-17T13:29:48.634Z,4.00
2018-06-17T13:32:18.310Z,5.07
2018-06-17T13:34:50.701Z,4.37
2018-06-17T13:37:20.036Z,3.00
2018-06-17T13:39:49.348Z,5.50
2018-06-17T13:42:18.685Z,3.43
2018-06-17T13:44:48.268Z,4.73
2018-06-17T13:47:17.993Z,2.63
2018-06-17T13:49:47.304Z,2.90
2018-06-17T13:52:16.903Z,3.00
2018-06-17T13:54:46.197Z,3.33
2018-06-17T13:57:15.965Z,3.37
2018-06-17T13:59:45.730Z,4.00
2018-06-17T14:02:15.064Z,3.53
2018-06-17T14:04:45.751Z,2.03
2018-06-17T14:07:15.424Z,5.03
2018-06-17T14:09:44.754Z,3.40
2018-06-17T14:12:14.484Z,3.43
2018-06-17T14:14:43.824Z,5.57
2018-06-17T14:17:13.215Z,4.90
2018-06-17T14:19:42.581Z,2.97
2018-06-17T14:22:11.933Z,3.10
2018-06-17T14:24:41.228Z,3.20
2018-06-17T14:27:10.558Z,4.77
2018-06-17T14:29:39.885Z,3.53
2018-06-17T14:32:09.193Z,4.40
2018-06-17T14:34:39.355Z,4.00
2018-06-17T14:37:09.434Z,2.97
2018-06-17T14:39:39.445Z,6.10
2018-06-17T14:42:13.960Z,3.33
2018-06-17T14:44:48.513Z,4.63
2018-06-17T14:47:24.004Z,4.67
2018-06-17T14:49:59.095Z,3.33
2018-06-17T14:53:05.956Z,4.07
2018-06-17T14:55:35.616Z,4.93
2018-06-17T14:58:05.686Z,6.27
2018-06-17T15:00:35.291Z,7.27
2018-06-17T15:03:04.640Z,3.00
2018-06-17T15:05:34.191Z,4.93
2018-06-17T15:08:04.044Z,3.70
2018-06-17T15:10:33.330Z,5.80
2018-06-17T15:13:02.689Z,6.07
2018-06-17T15:15:32.405Z,5.47
2018-06-17T15:18:02.582Z,4.23
2018-06-17T15:20:32.111Z,4.90
2018-06-17T15:23:01.736Z,3.70
2018-06-17T15:25:31.094Z,6.23
2018-06-17T15:28:00.907Z,3.10
2018-06-17T15:30:30.224Z,6.83
2018-06-17T15:33:04.773Z,4.17
2018-06-17T15:35:39.279Z,5.23
2018-06-17T15:38:13.941Z,4.93
2018-06-17T15:40:48.827Z,4.03
2018-06-17T15:43:18.168Z,4.40
2018-06-17T15:45:47.471Z,4.90
2018-06-17T15:48:16.807Z,4.57
2018-06-17T15:50:46.230Z,5.03
2018-06-17T15:53:15.528Z,2.43
2018-06-17T15:55:44.841Z,7.63
2018-06-17T15:58:14.208Z,5.70
2018-06-17T16:00:44.100Z,5.73
2018-06-17T16:03:13.444Z,4.50
2018-06-17T16:05:43.096Z,6.53
2018-06-17T16:08:12.806Z,7.07
2018-06-17T16:10:42.376Z,5.83
2018-06-17T16:13:17.003Z,2.70
2018-06-17T16:15:51.430Z,3.70
2018-06-17T16:18:26.273Z,7.23
2018-06-17T16:21:00.269Z,7.13
2018-06-17T16:23:31.460Z,4.43
2018-06-17T16:26:00.775Z,5.70
2018-06-17T16:28:30.813Z,5.40
2018-06-17T16:31:00.142Z,4.23
2018-06-17T16:33:29.463Z,4.13
2018-06-17T16:35:59.041Z,8.60
2018-06-17T16:38:28.334Z,4.33
2018-06-17T16:40:57.919Z,5.97
2018-06-17T16:43:27.491Z,7.57
2018-06-17T16:45:56.776Z,4.23
2018-06-17T16:48:26.118Z,4.60
2018-06-17T16:51:00.949Z,4.23
2018-06-17T16:53:35.492Z,6.37
2018-06-17T16:56:09.945Z,3.10
2018-06-17T16:58:45.471Z,7.13
2018-06-17T17:01:14.764Z,5.87
2018-06-17T17:03:44.153Z,6.57
2018-06-17T17:06:13.483Z,5.23
2018-06-17T17:08:44.831Z,7.13
2018-06-17T17:11:14.373Z,6.37
2018-06-17T17:13:43.654Z,4.50
2018-06-17T17:16:13.431Z,6.53
2018-06-17T17:18:43.638Z,6.13
2018-06-17T17:21:13.258Z,4.73
2018-06-17T17:23:42.555Z,6.33
2018-06-17T17:26:12.113Z,4.77
2018-06-17T17:28:41.509Z,4.20
2018-06-17T17:31:10.833Z,6.23
2018-06-17T17:33:46.199Z,4.90
2018-06-17T17:36:23.914Z,11.03
2018-06-17T17:38:58.425Z,5.27
2018-06-17T17:41:27.976Z,5.40
2018-06-17T17:43:57.618Z,6.40
2018-06-17T17:46:31.977Z,5.73
2018-06-17T17:49:01.279Z,5.53
2018-06-17T17:51:30.595Z,6.47
2018-06-17T17:53:59.994Z,5.43
2018-06-17T17:56:29.625Z,6.33
2018-06-17T17:58:58.947Z,5.17
2018-06-17T18:01:28.272Z,7.10
2018-06-17T18:03:57.586Z,8.00
2018-06-17T18:06:27.034Z,6.80
2018-06-17T18:08:56.561Z,5.40
2018-06-17T18:11:25.907Z,6.00
2018-06-17T18:13:55.250Z,6.23
2018-06-17T18:16:24.585Z,6.33
2018-06-17T18:18:54.218Z,6.70
2018-06-17T18:21:23.578Z,7.67
2018-06-17T18:23:53.320Z,7.90
2018-06-17T18:26:28.227Z,5.47
2018-06-17T18:31:05.948Z,7.73
2018-06-17T18:33:40.687Z,12.97
2018-06-17T18:36:16.110Z,5.87
2018-06-17T18:38:46.692Z,6.93
2018-06-17T18:41:16.900Z,3.53
2018-06-17T18:43:46.588Z,4.13
2018-06-17T18:46:15.901Z,6.43
2018-06-17T18:48:45.218Z,5.93
2018-06-17T18:51:14.861Z,5.67
2018-06-17T18:53:44.172Z,6.43
2018-06-17T18:56:13.488Z,6.00
2018-06-17T18:58:43.743Z,4.77
2018-06-17T19:01:13.344Z,6.63
2018-06-17T19:03:42.667Z,6.47
2018-06-17T19:06:12.249Z,7.13
2018-06-17T19:08:46.765Z,4.87
2018-06-17T19:11:21.369Z,6.13
2018-06-17T19:13:57.945Z,5.93
2018-06-17T19:16:32.886Z,5.40
2018-06-17T19:19:02.951Z,8.03
2018-06-17T19:21:32.682Z,8.03
2018-06-17T19:24:02.060Z,4.90
2018-06-17T19:26:31.400Z,8.40
2018-06-17T19:29:00.759Z,8.60
2018-06-17T19:31:31.557Z,6.60
2018-06-17T19:34:01.274Z,4.50
2018-06-17T19:36:30.630Z,7.17
2018-06-17T19:39:00.456Z,75.70
2018-06-17T19:41:29.818Z,6.57
2018-06-17T19:43:59.493Z,6.33
2018-06-17T19:46:29.121Z,5.63
2018-06-17T19:48:58.846Z,6.30
2018-06-17T19:51:33.420Z,7.93
2018-06-17T19:54:07.916Z,6.53
2018-06-17T19:56:42.540Z,8.03
2018-06-17T20:01:21.058Z,7.33
2018-06-17T20:03:50.409Z,4.63
2018-06-17T20:06:20.091Z,5.73
2018-06-17T20:08:50.033Z,6.63
2018-06-17T20:11:19.358Z,8.27
2018-06-17T20:13:48.985Z,5.47
2018-06-17T20:16:18.316Z,7.20
2018-06-17T20:18:48.930Z,8.43
2018-06-17T20:21:18.242Z,5.13
2018-06-17T20:23:47.642Z,9.97
2018-06-17T20:26:16.960Z,9.57
2018-06-17T20:28:46.575Z,4.10
2018-06-17T20:31:15.974Z,8.20
2018-06-17T20:33:50.455Z,8.03
2018-06-17T20:36:25.210Z,4.77
2018-06-17T20:39:00.018Z,5.10
2018-06-17T20:41:34.560Z,4.93
2018-06-17T20:44:03.936Z,7.63
2018-06-17T20:46:34.069Z,7.33
2018-06-17T20:49:03.410Z,5.47
2018-06-17T20:51:33.165Z,7.50
2018-06-17T20:54:02.496Z,6.10
2018-06-17T20:56:31.835Z,5.03
2018-06-17T20:59:01.944Z,5.03
2018-06-17T21:01:31.576Z,4.90
2018-06-17T21:04:00.891Z,4.17
2018-06-17T21:06:30.640Z,5.77
2018-06-17T21:08:59.999Z,5.70
2018-06-17T21:11:29.992Z,4.33
2018-06-17T21:13:59.296Z,4.93
2018-06-17T21:16:28.639Z,6.30
2018-06-17T21:19:03.352Z,4.37
2018-06-17T21:21:37.875Z,4.40
2018-06-17T21:24:12.792Z,5.03
2018-06-17T21:26:47.767Z,4.27
2018-06-17T21:29:17.092Z,4.20
2018-06-17T21:31:46.409Z,7.47
2018-06-17T21:34:15.763Z,5.90
2018-06-17T21:36:46.010Z,6.00
2018-06-17T21:39:15.312Z,3.17
2018-06-17T21:41:44.615Z,5.30
2018-06-17T21:44:13.919Z,7.27
2018-06-17T21:46:43.220Z,3.93
2018-06-17T21:49:12.788Z,3.97
2018-06-17T21:51:42.145Z,5.40
2018-06-17T21:54:11.448Z,3.90
2018-06-17T21:56:40.812Z,3.60
2018-06-17T21:59:10.137Z,4.00
2018-06-17T22:01:39.771Z,6.93
2018-06-17T22:04:14.305Z,5.20
2018-06-17T22:06:43.624Z,5.80
2018-06-17T22:09:18.741Z,6.70
2018-06-17T22:11:53.408Z,4.10
2018-06-17T22:14:28.564Z,5.93
2018-06-17T22:18:02.223Z,6.77
2018-06-17T22:20:32.881Z,7.93
2018-06-17T22:23:02.204Z,5.33
2018-06-17T22:25:31.620Z,4.87
2018-06-17T22:28:01.884Z,6.13
2018-06-17T22:30:31.165Z,7.13
2018-06-17T22:33:00.525Z,4.53
2018-06-17T22:35:30.056Z,4.27
2018-06-17T22:38:00.048Z,6.30
2018-06-17T22:40:29.737Z,5.50
2018-06-17T22:42:59.095Z,3.83
2018-06-17T22:45:28.429Z,5.90
2018-06-17T22:47:57.809Z,6.37
2018-06-17T22:50:27.192Z,5.23
2018-06-17T22:53:07.847Z,5.40
2018-06-17T22:55:37.348Z,8.30
2018-06-17T22:58:13.015Z,6.43
2018-06-17T23:00:47.812Z,6.57
2018-06-17T23:03:22.327Z,7.23
2018-06-17T23:05:57.924Z,6.43
2018-06-17T23:08:32.693Z,6.13
2018-06-17T23:11:02.700Z,9.07
2018-06-17T23:13:32.027Z,5.73
2018-06-17T23:16:01.360Z,6.80
2018-06-17T23:18:31.297Z,7.57
2018-06-17T23:21:00.927Z,4.40
2018-06-17T23:23:30.305Z,6.37
2018-06-17T23:25:59.916Z,7.70
2018-06-17T23:28:29.300Z,4.87
2018-06-17T23:30:58.680Z,5.10
2018-06-17T23:33:28.353Z,5.77
2018-06-17T23:35:57.672Z,5.83
2018-06-17T23:38:27.341Z,8.20
2018-06-17T23:40:56.677Z,5.83
2018-06-17T23:43:26.077Z,6.23
2018-06-17T23:46:01.097Z,4.67
2018-06-17T23:48:35.844Z,7.23
2018-06-17T23:51:10.623Z,6.57
2018-06-17T23:53:45.259Z,4.13
2018-06-17T23:56:14.871Z,4.87
2018-06-17T23:58:44.192Z,5.53
